createdAt,value
2022-11-26T00:00:36.056Z,15.10
2022-11-26T00:01:36.046Z,14.80
2022-11-26T00:02:36.239Z,15.40
2022-11-26T00:03:36.082Z,16.00
2022-11-26T00:04:36.359Z,15.20
2022-11-26T00:05:36.053Z,16.00
2022-11-26T00:06:35.964Z,16.60
2022-11-26T00:07:36.027Z,15.80
2022-11-26T00:08:35.957Z,17.50
2022-11-26T00:09:35.943Z,17.10
2022-11-26T00:10:35.935Z,17.50
2022-11-26T00:11:35.921Z,16.30
2022-11-26T00:12:35.942Z,17.70
2022-11-26T00:13:35.912Z,17.80
2022-11-26T00:14:36.327Z,17.40
2022-11-26T00:15:35.878Z,17.30
2022-11-26T00:16:36.027Z,17.60
2022-11-26T00:17:35.871Z,18.50
2022-11-26T00:18:35.880Z,17.40
2022-11-26T00:19:35.832Z,18.50
2022-11-26T00:20:35.840Z,18.90
2022-11-26T00:21:35.815Z,17.80
2022-11-26T00:22:35.851Z,18.10
2022-11-26T00:23:35.826Z,18.80
2022-11-26T00:24:36.125Z,18.70
2022-11-26T00:25:35.769Z,17.70
2022-11-26T00:26:35.760Z,17.60
2022-11-26T00:27:35.784Z,17.00
2022-11-26T00:28:35.742Z,16.80
2022-11-26T00:29:35.747Z,17.50
2022-11-26T00:30:35.718Z,17.10
2022-11-26T00:31:35.831Z,17.20
2022-11-26T00:32:43.676Z,16.60
2022-11-26T00:33:35.677Z,16.60
2022-11-26T00:34:35.993Z,16.70
2022-11-26T00:35:35.654Z,17.00
2022-11-26T00:36:35.654Z,16.50
2022-11-26T00:37:35.682Z,17.70
2022-11-26T00:38:35.636Z,17.70
2022-11-26T00:39:35.625Z,16.00
2022-11-26T00:40:35.604Z,16.90
2022-11-26T00:41:35.591Z,17.30
2022-11-26T00:42:35.576Z,17.90
2022-11-26T00:43:35.610Z,17.90
2022-11-26T00:44:35.876Z,17.90
2022-11-26T00:45:35.634Z,17.60
2022-11-26T00:46:35.544Z,19.10
2022-11-26T00:47:35.530Z,17.00
2022-11-26T00:48:35.560Z,18.30
2022-11-26T00:49:35.528Z,19.70
2022-11-26T00:50:35.511Z,19.10
2022-11-26T00:51:35.506Z,19.70
2022-11-26T00:52:35.482Z,18.60
2022-11-26T00:53:35.469Z,19.50
2022-11-26T00:54:35.630Z,18.60
2022-11-26T00:55:35.467Z,19.40
2022-11-26T00:56:38.095Z,19.30
2022-11-26T00:57:35.428Z,18.70
2022-11-26T00:58:35.445Z,17.30
2022-11-26T00:59:35.406Z,19.50
2022-11-26T01:00:35.597Z,18.90
2022-11-26T01:01:35.412Z,17.50
2022-11-26T01:02:35.373Z,19.00
2022-11-26T01:03:35.372Z,18.40
2022-11-26T01:04:35.597Z,18.50
2022-11-26T01:05:35.340Z,18.20
2022-11-26T01:06:35.322Z,17.40
2022-11-26T01:07:35.355Z,16.10
2022-11-26T01:08:35.311Z,16.50
2022-11-26T01:09:35.292Z,18.60
2022-11-26T01:10:35.272Z,16.60
2022-11-26T01:11:35.272Z,17.90
2022-11-26T01:12:35.249Z,18.00
2022-11-26T01:13:35.255Z,17.70
2022-11-26T01:14:35.315Z,18.60
2022-11-26T01:15:35.231Z,17.50
2022-11-26T01:16:35.304Z,17.30
2022-11-26T01:17:35.209Z,17.30
2022-11-26T01:18:35.231Z,16.50
2022-11-26T01:19:35.182Z,18.20
2022-11-26T01:20:35.184Z,17.30
2022-11-26T01:21:35.167Z,16.70
2022-11-26T01:22:35.155Z,16.90
2022-11-26T01:23:35.140Z,17.00
2022-11-26T01:24:35.402Z,16.20
2022-11-26T01:25:35.165Z,17.40
2022-11-26T01:26:35.098Z,16.60
2022-11-26T01:27:35.098Z,17.20
2022-11-26T01:28:35.081Z,17.30
2022-11-26T01:29:35.071Z,18.20
2022-11-26T01:30:35.057Z,17.60
2022-11-26T01:31:35.168Z,17.20
2022-11-26T01:32:42.543Z,17.50
2022-11-26T01:33:35.023Z,16.60
2022-11-26T01:34:35.171Z,16.80
2022-11-26T01:35:35.000Z,17.70
2022-11-26T01:36:35.003Z,17.80
2022-11-26T01:37:34.979Z,17.60
2022-11-26T01:38:34.971Z,17.70
2022-11-26T01:39:34.955Z,17.00
2022-11-26T01:40:34.941Z,18.00
2022-11-26T01:41:34.959Z,17.40
2022-11-26T01:42:34.940Z,18.10
2022-11-26T01:43:34.914Z,18.10
2022-11-26T01:44:35.049Z,17.20
2022-11-26T01:45:34.949Z,17.10
2022-11-26T01:46:35.059Z,17.30
2022-11-26T01:47:34.874Z,17.30
2022-11-26T01:48:34.873Z,16.90
2022-11-26T01:49:34.850Z,17.80
2022-11-26T01:50:34.834Z,18.90
2022-11-26T01:51:34.842Z,17.60
2022-11-26T01:52:34.835Z,17.20
2022-11-26T01:53:34.810Z,17.50
2022-11-26T01:54:34.912Z,18.30
2022-11-26T01:55:34.832Z,17.50
2022-11-26T01:56:34.800Z,16.90
2022-11-26T01:57:34.762Z,18.20
2022-11-26T01:58:39.628Z,17.10
2022-11-26T01:59:34.748Z,18.10
2022-11-26T02:00:34.751Z,17.90
2022-11-26T02:01:34.866Z,17.70
2022-11-26T02:02:34.885Z,18.00
2022-11-26T02:03:34.732Z,18.00
2022-11-26T02:04:34.841Z,18.10
2022-11-26T02:05:34.683Z,17.50
2022-11-26T02:06:34.667Z,18.40
2022-11-26T02:07:34.718Z,18.50
2022-11-26T02:08:34.647Z,17.30
2022-11-26T02:09:34.660Z,19.20
2022-11-26T02:10:34.616Z,18.30
2022-11-26T02:11:34.663Z,17.30
2022-11-26T02:12:34.588Z,18.40
2022-11-26T02:13:34.597Z,19.10
2022-11-26T02:14:34.592Z,18.40
2022-11-26T02:15:34.744Z,19.00
2022-11-26T02:16:34.665Z,18.00
2022-11-26T02:17:34.589Z,18.60
2022-11-26T02:18:34.530Z,17.90
2022-11-26T02:19:34.512Z,18.80
2022-11-26T02:20:34.534Z,19.70
2022-11-26T02:21:34.528Z,18.00
2022-11-26T02:22:34.533Z,18.50
2022-11-26T02:23:34.473Z,18.60
2022-11-26T02:24:34.453Z,18.00
2022-11-26T02:25:34.447Z,17.90
2022-11-26T02:26:34.478Z,18.10
2022-11-26T02:27:34.450Z,18.20
2022-11-26T02:28:34.446Z,18.80
2022-11-26T02:29:34.441Z,18.40
2022-11-26T02:30:34.399Z,18.70
2022-11-26T02:31:34.580Z,18.30
2022-11-26T02:32:42.894Z,17.70
2022-11-26T02:33:34.366Z,18.50
2022-11-26T02:34:37.805Z,19.90
2022-11-26T02:35:34.620Z,19.20
2022-11-26T02:36:34.324Z,19.70
2022-11-26T02:37:34.370Z,18.90
2022-11-26T02:38:34.320Z,18.10
2022-11-26T02:39:34.313Z,19.00
2022-11-26T02:40:34.291Z,18.90
2022-11-26T02:41:34.300Z,19.20
2022-11-26T02:42:34.311Z,18.00
2022-11-26T02:43:34.242Z,18.50
2022-11-26T02:44:34.245Z,16.90
2022-11-26T02:45:34.304Z,18.90
2022-11-26T02:46:34.252Z,17.90
2022-11-26T02:47:34.255Z,19.20
2022-11-26T02:48:34.221Z,19.40
2022-11-26T02:49:34.224Z,18.10
2022-11-26T02:50:34.170Z,19.70
2022-11-26T02:51:35.085Z,18.80
2022-11-26T02:52:34.164Z,18.50
2022-11-26T02:53:34.259Z,18.40
2022-11-26T02:54:34.142Z,17.70
2022-11-26T02:55:34.126Z,19.50
2022-11-26T02:56:34.127Z,20.00
2022-11-26T02:57:34.093Z,20.00
2022-11-26T02:58:34.105Z,19.30
2022-11-26T02:59:34.067Z,19.10
2022-11-26T03:00:34.058Z,19.70
2022-11-26T03:01:34.105Z,18.00
2022-11-26T03:02:34.044Z,18.70
2022-11-26T03:03:34.145Z,18.10
2022-11-26T03:04:34.033Z,18.10
2022-11-26T03:05:34.016Z,17.00
2022-11-26T03:06:34.024Z,17.50
2022-11-26T03:07:34.051Z,18.90
2022-11-26T03:08:34.007Z,18.40
2022-11-26T03:09:33.958Z,17.00
2022-11-26T03:10:33.944Z,17.10
2022-11-26T03:11:33.965Z,16.70
2022-11-26T03:12:34.027Z,17.10
2022-11-26T03:13:33.949Z,18.00
2022-11-26T03:14:33.931Z,16.70
2022-11-26T03:15:33.928Z,15.80
2022-11-26T03:16:33.927Z,15.60
2022-11-26T03:17:33.872Z,15.80
2022-11-26T03:18:33.871Z,15.40
2022-11-26T03:19:33.888Z,13.90
2022-11-26T03:20:33.915Z,14.80
2022-11-26T03:21:33.897Z,15.10
2022-11-26T03:22:33.860Z,13.70
2022-11-26T03:23:33.808Z,14.50
2022-11-26T03:24:33.796Z,14.90
2022-11-26T03:25:33.830Z,14.40
2022-11-26T03:26:33.806Z,15.30
2022-11-26T03:27:33.793Z,15.10
2022-11-26T03:28:33.752Z,14.90
2022-11-26T03:29:33.860Z,14.20
2022-11-26T03:30:34.253Z,14.70
2022-11-26T03:31:33.796Z,15.00
2022-11-26T03:32:42.308Z,15.20
2022-11-26T03:33:33.723Z,14.90
2022-11-26T03:34:33.717Z,16.00
2022-11-26T03:35:33.714Z,15.80
2022-11-26T03:36:33.662Z,15.80
2022-11-26T03:37:33.678Z,16.70
2022-11-26T03:38:33.661Z,15.70
2022-11-26T03:39:33.643Z,16.00
2022-11-26T03:40:33.646Z,17.60
2022-11-26T03:41:33.625Z,16.80
2022-11-26T03:42:33.591Z,15.20
2022-11-26T03:43:33.592Z,16.70
2022-11-26T03:44:33.589Z,17.10
2022-11-26T03:45:33.610Z,18.80
2022-11-26T03:46:33.572Z,15.40
2022-11-26T03:47:33.564Z,17.30
2022-11-26T03:48:33.529Z,18.60
2022-11-26T03:49:33.634Z,16.80
2022-11-26T03:50:33.552Z,16.40
2022-11-26T03:51:33.512Z,17.50
2022-11-26T03:52:33.491Z,17.00
2022-11-26T03:53:33.472Z,18.10
2022-11-26T03:54:33.462Z,17.70
2022-11-26T03:55:33.471Z,17.00
2022-11-26T03:56:33.452Z,16.80
2022-11-26T03:57:33.429Z,17.00
2022-11-26T03:58:33.429Z,19.10
2022-11-26T03:59:33.406Z,18.50
2022-11-26T04:00:33.412Z,17.30
2022-11-26T04:01:33.417Z,18.20
2022-11-26T04:02:33.387Z,17.80
2022-11-26T04:03:33.395Z,17.20
2022-11-26T04:04:33.358Z,17.30
2022-11-26T04:05:33.335Z,16.70
2022-11-26T04:06:33.356Z,17.30
2022-11-26T04:07:33.348Z,17.10
2022-11-26T04:08:33.314Z,16.20
2022-11-26T04:09:33.296Z,17.10
2022-11-26T04:10:33.279Z,18.10
2022-11-26T04:11:33.334Z,17.50
2022-11-26T04:12:33.277Z,17.50
2022-11-26T04:13:33.255Z,18.00
2022-11-26T04:14:33.234Z,18.00
2022-11-26T04:15:33.225Z,18.40
2022-11-26T04:16:33.235Z,18.00
2022-11-26T04:17:33.210Z,19.00
2022-11-26T04:18:33.207Z,17.30
2022-11-26T04:19:33.196Z,18.40
2022-11-26T04:20:33.179Z,18.30
2022-11-26T04:21:33.156Z,17.20
2022-11-26T04:22:33.140Z,18.70
2022-11-26T04:23:33.147Z,18.60
2022-11-26T04:24:33.134Z,17.70
2022-11-26T04:25:33.109Z,17.80
2022-11-26T04:26:33.125Z,17.80
2022-11-26T04:27:33.110Z,17.80
2022-11-26T04:28:33.101Z,19.10
2022-11-26T04:29:33.061Z,17.80
2022-11-26T04:30:33.058Z,20.70
2022-11-26T04:31:33.098Z,18.30
2022-11-26T04:32:39.585Z,19.50
2022-11-26T04:33:33.032Z,18.60
2022-11-26T04:34:33.001Z,18.70
2022-11-26T04:35:32.992Z,19.40
2022-11-26T04:36:32.985Z,20.90
2022-11-26T04:37:32.967Z,18.90
2022-11-26T04:38:32.969Z,19.30
2022-11-26T04:39:32.952Z,19.40
2022-11-26T04:40:32.954Z,19.00
2022-11-26T04:41:32.952Z,19.70
2022-11-26T04:42:32.928Z,18.30
2022-11-26T04:43:32.969Z,19.20
2022-11-26T04:44:32.914Z,19.20
2022-11-26T04:45:32.992Z,18.60
2022-11-26T04:46:32.925Z,17.80
2022-11-26T04:47:32.867Z,18.60
2022-11-26T04:48:32.900Z,18.90
2022-11-26T04:49:32.845Z,17.30
2022-11-26T04:50:32.879Z,17.30
2022-11-26T04:51:32.889Z,16.60
2022-11-26T04:52:32.808Z,18.40
2022-11-26T04:53:32.802Z,16.90
2022-11-26T04:54:32.795Z,17.00
2022-11-26T04:55:32.807Z,16.70
2022-11-26T04:56:32.773Z,16.70
2022-11-26T04:57:32.752Z,16.70
2022-11-26T04:58:32.759Z,18.50
2022-11-26T04:59:32.753Z,16.90
2022-11-26T05:00:32.750Z,17.80
2022-11-26T05:01:32.776Z,17.80
2022-11-26T05:02:32.764Z,17.20
2022-11-26T05:03:32.690Z,18.30
2022-11-26T05:04:32.684Z,17.00
2022-11-26T05:05:32.685Z,18.20
2022-11-26T05:06:32.666Z,17.50
2022-11-26T05:07:32.736Z,16.10
2022-11-26T05:08:32.634Z,17.90
2022-11-26T05:09:32.629Z,16.30
2022-11-26T05:10:32.624Z,16.30
2022-11-26T05:11:32.617Z,16.00
2022-11-26T05:12:32.590Z,15.80
2022-11-26T05:13:32.602Z,16.60
2022-11-26T05:14:32.567Z,16.80
2022-11-26T05:15:32.559Z,17.30
2022-11-26T05:16:32.667Z,15.80
2022-11-26T05:17:32.558Z,16.20
2022-11-26T05:18:32.528Z,16.10
2022-11-26T05:19:32.535Z,16.20
2022-11-26T05:20:32.526Z,16.90
2022-11-26T05:21:32.507Z,15.80
2022-11-26T05:22:32.528Z,16.80
2022-11-26T05:23:32.465Z,16.60
2022-11-26T05:24:32.471Z,17.30
2022-11-26T05:25:32.458Z,16.70
2022-11-26T05:26:32.454Z,16.50
2022-11-26T05:27:32.454Z,17.80
2022-11-26T05:28:32.419Z,16.90
2022-11-26T05:29:32.393Z,17.60
2022-11-26T05:30:32.383Z,18.10
2022-11-26T05:31:32.486Z,18.60
2022-11-26T05:32:39.876Z,17.60
2022-11-26T05:33:32.371Z,17.10
2022-11-26T05:34:32.351Z,17.80
2022-11-26T05:35:32.338Z,18.00
2022-11-26T05:36:32.334Z,17.80
2022-11-26T05:37:32.321Z,16.90
2022-11-26T05:38:32.303Z,18.20
2022-11-26T05:39:32.297Z,18.00
2022-11-26T05:40:32.275Z,19.20
2022-11-26T05:41:32.282Z,17.50
2022-11-26T05:42:32.268Z,17.50
2022-11-26T05:43:32.251Z,17.90
2022-11-26T05:44:32.237Z,18.10
2022-11-26T05:45:32.252Z,18.40
2022-11-26T05:46:32.238Z,17.90
2022-11-26T05:47:32.205Z,18.50
2022-11-26T05:48:32.193Z,18.20
2022-11-26T05:49:32.180Z,17.50
2022-11-26T05:50:32.165Z,18.80
2022-11-26T05:51:32.183Z,18.30
2022-11-26T05:52:32.187Z,17.80
2022-11-26T05:53:32.152Z,18.90
2022-11-26T05:54:32.148Z,17.90
2022-11-26T05:55:32.120Z,17.70
2022-11-26T05:56:32.114Z,19.30
2022-11-26T05:57:32.114Z,18.40
2022-11-26T05:58:32.096Z,18.20
2022-11-26T05:59:32.090Z,18.00
2022-11-26T06:00:32.063Z,18.30
2022-11-26T06:01:32.070Z,18.30
2022-11-26T06:02:32.275Z,18.40
2022-11-26T06:03:32.105Z,17.20
2022-11-26T06:04:32.047Z,18.20
2022-11-26T06:05:32.022Z,17.50
2022-11-26T06:06:32.009Z,17.40
2022-11-26T06:07:32.066Z,17.40
2022-11-26T06:08:31.992Z,18.30
2022-11-26T06:09:31.974Z,18.90
2022-11-26T06:10:31.973Z,18.60
2022-11-26T06:11:31.977Z,17.90
2022-11-26T06:12:31.959Z,18.70
2022-11-26T06:13:31.923Z,18.50
2022-11-26T06:14:31.917Z,17.40
2022-11-26T06:15:31.914Z,17.60
2022-11-26T06:16:31.945Z,17.80
2022-11-26T06:17:31.895Z,18.20
2022-11-26T06:18:31.887Z,17.60
2022-11-26T06:19:31.856Z,17.90
2022-11-26T06:20:31.853Z,18.00
2022-11-26T06:21:31.843Z,17.80
2022-11-26T06:22:31.868Z,17.00
2022-11-26T06:23:31.822Z,18.70
2022-11-26T06:24:31.806Z,18.30
2022-11-26T06:25:31.804Z,18.10
2022-11-26T06:26:31.795Z,18.00
2022-11-26T06:27:31.816Z,17.80
2022-11-26T06:28:31.787Z,19.30
2022-11-26T06:29:31.770Z,17.90
2022-11-26T06:30:31.748Z,18.60
2022-11-26T06:31:31.784Z,19.70
2022-11-26T06:32:39.252Z,18.60
2022-11-26T06:33:31.713Z,19.00
2022-11-26T06:34:31.705Z,19.30
2022-11-26T06:35:31.700Z,18.40
2022-11-26T06:36:31.688Z,19.10
2022-11-26T06:37:31.662Z,19.40
2022-11-26T06:38:31.682Z,20.30
2022-11-26T06:39:31.650Z,19.10
2022-11-26T06:40:31.646Z,19.10
2022-11-26T06:41:31.628Z,18.50
2022-11-26T06:42:31.618Z,20.20
2022-11-26T06:43:31.894Z,21.00
2022-11-26T06:44:31.601Z,19.50
2022-11-26T06:45:31.647Z,19.90
2022-11-26T06:46:31.581Z,20.10
2022-11-26T06:47:31.565Z,20.70
2022-11-26T06:48:31.642Z,20.40
2022-11-26T06:49:31.556Z,19.70
2022-11-26T06:50:31.534Z,20.10
2022-11-26T06:51:31.521Z,21.40
2022-11-26T06:52:31.509Z,19.10
2022-11-26T06:53:31.500Z,20.10
2022-11-26T06:54:31.525Z,19.80
2022-11-26T06:55:31.485Z,19.00
2022-11-26T06:56:31.475Z,21.20
2022-11-26T06:57:31.458Z,19.80
2022-11-26T06:58:31.441Z,21.10
2022-11-26T06:59:31.441Z,21.90
2022-11-26T07:00:31.419Z,20.80
2022-11-26T07:01:31.474Z,22.30
2022-11-26T07:02:31.511Z,19.60
2022-11-26T07:03:33.528Z,21.70
2022-11-26T07:04:31.385Z,20.30
2022-11-26T07:05:31.363Z,20.30
2022-11-26T07:06:31.354Z,19.60
2022-11-26T07:07:31.377Z,20.10
2022-11-26T07:08:31.348Z,20.70
2022-11-26T07:09:31.370Z,22.20
2022-11-26T07:10:31.309Z,21.30
2022-11-26T07:11:31.313Z,21.70
2022-11-26T07:12:31.315Z,20.40
2022-11-26T07:13:31.303Z,21.60
2022-11-26T07:14:31.282Z,21.30
2022-11-26T07:15:31.283Z,20.70
2022-11-26T07:16:31.302Z,22.10
2022-11-26T07:17:31.251Z,22.40
2022-11-26T07:18:31.237Z,22.10
2022-11-26T07:19:31.216Z,21.50
2022-11-26T07:20:31.228Z,22.70
2022-11-26T07:21:31.317Z,22.40
2022-11-26T07:22:31.176Z,23.10
2022-11-26T07:23:31.183Z,21.90
2022-11-26T07:24:31.156Z,22.50
2022-11-26T07:25:31.144Z,24.00
2022-11-26T07:26:31.162Z,24.40
2022-11-26T07:27:31.160Z,24.10
2022-11-26T07:28:31.117Z,23.70
2022-11-26T07:29:31.107Z,23.30
2022-11-26T07:30:31.113Z,25.60
2022-11-26T07:31:31.113Z,25.00
2022-11-26T07:33:43.000Z,27.10
2022-11-26T07:34:43.965Z,28.00
2022-11-26T07:35:43.960Z,26.70
2022-11-26T07:36:43.958Z,26.80
2022-11-26T07:37:43.935Z,25.70
2022-11-26T07:38:43.947Z,27.30
2022-11-26T07:39:43.909Z,26.20
2022-11-26T07:40:43.911Z,28.10
2022-11-26T07:41:43.890Z,28.40
2022-11-26T07:42:43.916Z,26.80
2022-11-26T07:43:43.868Z,29.40
2022-11-26T07:44:43.862Z,27.10
2022-11-26T07:45:43.909Z,28.50
2022-11-26T07:46:43.935Z,28.70
2022-11-26T07:47:44.174Z,29.30
2022-11-26T07:48:43.850Z,28.60
2022-11-26T07:49:43.880Z,27.80
2022-11-26T07:50:43.807Z,27.80
2022-11-26T07:51:43.843Z,28.00
2022-11-26T07:52:43.823Z,27.70
2022-11-26T07:53:43.790Z,25.80
2022-11-26T07:54:43.763Z,25.60
2022-11-26T07:55:43.785Z,24.40
2022-11-26T07:56:43.733Z,26.60
2022-11-26T07:57:43.710Z,26.30
2022-11-26T07:58:43.716Z,26.80
2022-11-26T07:59:43.699Z,27.30
2022-11-26T08:00:43.712Z,27.40
2022-11-26T08:01:43.727Z,27.90
2022-11-26T08:02:43.726Z,27.50
2022-11-26T08:03:43.666Z,26.20
2022-11-26T08:04:43.639Z,26.50
2022-11-26T08:05:43.624Z,26.40
2022-11-26T08:06:43.620Z,26.10
2022-11-26T08:07:43.662Z,25.50
2022-11-26T08:08:43.593Z,25.10
2022-11-26T08:09:43.694Z,24.40
2022-11-26T08:10:43.603Z,25.80
2022-11-26T08:11:43.580Z,25.00
2022-11-26T08:12:43.619Z,25.80
2022-11-26T08:13:43.537Z,24.80
2022-11-26T08:14:43.546Z,25.50
2022-11-26T08:15:43.547Z,25.60
2022-11-26T08:16:43.640Z,24.00
2022-11-26T08:17:43.723Z,24.20
2022-11-26T08:18:43.471Z,23.80
2022-11-26T08:19:43.476Z,23.00
2022-11-26T08:20:43.454Z,23.50
2022-11-26T08:21:43.448Z,25.50
2022-11-26T08:22:43.476Z,25.00
2022-11-26T08:23:43.424Z,23.90
2022-11-26T08:24:43.407Z,24.60
2022-11-26T08:26:06.020Z,24.70
2022-11-26T08:26:44.502Z,25.10
2022-11-26T08:27:43.391Z,25.10
2022-11-26T08:28:43.423Z,26.20
2022-11-26T08:29:43.357Z,24.50
2022-11-26T08:30:43.356Z,24.10
2022-11-26T08:32:54.310Z,42.90
2022-11-26T08:33:55.291Z,45.40
2022-11-26T08:34:55.277Z,44.80
2022-11-26T08:36:06.580Z,28.50
2022-11-26T08:36:55.253Z,25.90
2022-11-26T08:37:55.224Z,25.90
2022-11-26T08:38:55.277Z,25.90
2022-11-26T08:39:55.988Z,25.20
2022-11-26T08:40:55.293Z,24.70
2022-11-26T08:41:55.437Z,25.70
2022-11-26T08:42:55.172Z,25.90
2022-11-26T08:44:10.633Z,26.80
2022-11-26T08:44:55.204Z,26.20
2022-11-26T08:45:55.182Z,25.70
2022-11-26T08:46:55.127Z,24.70
2022-11-26T08:47:55.119Z,27.30
2022-11-26T08:48:55.101Z,26.70
2022-11-26T08:49:55.133Z,28.00
2022-11-26T08:50:55.090Z,26.70
2022-11-26T08:51:55.098Z,26.90
2022-11-26T08:52:55.074Z,28.00
2022-11-26T08:53:55.059Z,27.60
2022-11-26T08:54:55.062Z,26.20
2022-11-26T08:56:00.367Z,27.80
2022-11-26T08:56:55.022Z,26.10
2022-11-26T08:57:55.027Z,28.10
2022-11-26T08:58:55.008Z,30.30
2022-11-26T08:59:54.987Z,29.60
2022-11-26T09:00:55.017Z,29.20
2022-11-26T09:01:55.264Z,28.20
2022-11-26T09:02:55.049Z,29.40
2022-11-26T09:03:55.851Z,29.90
2022-11-26T09:04:54.963Z,29.70
2022-11-26T09:05:54.940Z,30.10
2022-11-26T09:06:54.928Z,29.60
2022-11-26T09:07:54.964Z,31.50
2022-11-26T09:08:54.906Z,31.20
2022-11-26T09:09:54.906Z,29.70
2022-11-26T09:10:54.925Z,31.20
2022-11-26T09:11:54.924Z,32.30
2022-11-26T09:12:54.874Z,35.50
2022-11-26T09:13:54.841Z,33.00
2022-11-26T09:14:55.701Z,34.70
2022-11-26T09:15:54.818Z,33.50
2022-11-26T09:16:54.903Z,36.30
2022-11-26T09:17:54.792Z,34.30
2022-11-26T09:18:54.837Z,35.10
2022-11-26T09:19:54.781Z,33.30
2022-11-26T09:20:57.267Z,35.70
2022-11-26T09:21:54.746Z,33.90
2022-11-26T09:22:54.737Z,37.10
2022-11-26T09:23:54.716Z,33.70
2022-11-26T09:24:54.731Z,34.60
2022-11-26T09:25:54.698Z,35.60
2022-11-26T09:26:54.695Z,35.00
2022-11-26T09:27:54.737Z,33.80
2022-11-26T09:28:54.762Z,35.20
2022-11-26T09:29:54.761Z,33.50
2022-11-26T09:30:54.756Z,34.80
2022-11-26T09:32:22.782Z,35.60
2022-11-26T09:32:54.668Z,32.50
2022-11-26T09:33:54.620Z,33.80
2022-11-26T09:34:54.660Z,33.30
2022-11-26T09:35:54.595Z,33.40
2022-11-26T09:36:54.579Z,34.20
2022-11-26T09:37:54.587Z,33.40
2022-11-26T09:38:54.555Z,32.50
2022-11-26T09:39:54.581Z,32.80
2022-11-26T09:40:54.641Z,30.90
2022-11-26T09:41:54.534Z,32.50
2022-11-26T09:42:54.540Z,33.00
2022-11-26T09:43:54.526Z,32.40
2022-11-26T09:44:54.562Z,30.80
2022-11-26T09:45:54.575Z,32.80
2022-11-26T09:47:11.115Z,31.30
2022-11-26T09:47:54.511Z,29.60
2022-11-26T09:48:54.496Z,28.70
2022-11-26T09:49:54.441Z,28.50
2022-11-26T09:50:54.431Z,27.20
2022-11-26T09:51:54.408Z,28.10
2022-11-26T09:52:54.407Z,28.40
2022-11-26T09:53:54.392Z,27.80
2022-11-26T09:54:54.451Z,26.10
2022-11-26T09:55:54.400Z,24.60
2022-11-26T09:56:54.357Z,26.20
2022-11-26T09:57:54.344Z,24.60
2022-11-26T09:58:54.333Z,25.00
2022-11-26T09:59:54.350Z,24.80
2022-11-26T10:00:54.417Z,25.90
2022-11-26T10:01:54.410Z,24.70
2022-11-26T10:02:54.348Z,27.60
2022-11-26T10:03:54.294Z,26.00
2022-11-26T10:04:54.274Z,28.10
2022-11-26T10:05:54.354Z,26.30
2022-11-26T10:06:54.254Z,25.70
2022-11-26T10:07:54.303Z,26.40
2022-11-26T10:08:54.226Z,27.30
2022-11-26T10:09:54.235Z,25.00
2022-11-26T10:10:54.245Z,25.50
2022-11-26T10:11:54.247Z,26.20
2022-11-26T10:13:17.487Z,26.00
2022-11-26T10:13:54.174Z,25.60
2022-11-26T10:14:54.178Z,27.70
2022-11-26T10:15:54.165Z,26.90
2022-11-26T10:16:54.995Z,28.10
2022-11-26T10:17:54.128Z,26.10
2022-11-26T10:18:54.108Z,28.70
2022-11-26T10:19:54.150Z,26.60
2022-11-26T10:20:54.570Z,24.50
2022-11-26T10:21:59.108Z,25.20
2022-11-26T10:22:57.105Z,24.80
2022-11-26T10:23:54.103Z,23.80
2022-11-26T10:24:54.081Z,23.50
2022-11-26T10:25:54.079Z,22.90
2022-11-26T10:26:54.019Z,21.80
2022-11-26T10:27:54.017Z,23.30
2022-11-26T10:28:54.036Z,22.90
2022-11-26T10:29:53.998Z,22.60
2022-11-26T10:30:54.053Z,22.30
2022-11-26T10:32:02.563Z,22.90
2022-11-26T10:32:53.959Z,21.90
2022-11-26T10:33:53.949Z,22.60
2022-11-26T10:34:53.929Z,23.00
2022-11-26T10:35:53.947Z,22.70
2022-11-26T10:36:53.939Z,21.20
2022-11-26T10:37:53.921Z,20.90
2022-11-26T10:38:53.917Z,20.50
2022-11-26T10:39:59.142Z,20.90
2022-11-26T10:40:53.907Z,21.10
2022-11-26T10:41:53.913Z,20.40
2022-11-26T10:42:53.885Z,20.00
2022-11-26T10:43:53.847Z,19.30
2022-11-26T10:44:53.831Z,18.70
2022-11-26T10:45:53.940Z,18.10
2022-11-26T10:46:53.980Z,17.20
2022-11-26T10:47:53.791Z,19.30
2022-11-26T10:48:53.792Z,17.80
2022-11-26T10:49:53.784Z,18.70
2022-11-26T10:50:53.773Z,17.40
2022-11-26T10:51:53.765Z,17.50
2022-11-26T10:52:53.754Z,16.50
2022-11-26T10:53:53.761Z,17.30
2022-11-26T10:54:53.729Z,15.90
2022-11-26T10:55:53.711Z,16.80
2022-11-26T10:56:53.713Z,17.20
2022-11-26T10:57:53.684Z,16.50
2022-11-26T10:58:53.737Z,15.60
2022-11-26T10:59:53.687Z,16.00
2022-11-26T11:00:53.704Z,16.50
2022-11-26T11:01:56.231Z,16.30
2022-11-26T11:02:53.662Z,16.90
2022-11-26T11:04:09.349Z,16.20
2022-11-26T11:04:53.631Z,17.40
2022-11-26T11:05:53.590Z,15.70
2022-11-26T11:06:53.626Z,16.60
2022-11-26T11:07:53.680Z,18.60
2022-11-26T11:08:53.620Z,23.30
2022-11-26T11:09:53.577Z,22.20
2022-11-26T11:10:53.570Z,22.90
2022-11-26T11:11:53.540Z,22.70
2022-11-26T11:12:53.529Z,24.30
2022-11-26T11:13:53.574Z,23.30
2022-11-26T11:14:53.547Z,22.30
2022-11-26T11:15:53.610Z,23.10
2022-11-26T11:16:53.538Z,21.40
2022-11-26T11:17:53.461Z,19.40
2022-11-26T11:18:53.482Z,14.20
2022-11-26T11:19:53.449Z,14.20
2022-11-26T11:20:53.457Z,13.50
2022-11-26T11:21:53.465Z,14.90
2022-11-26T11:22:56.295Z,14.30
2022-11-26T11:24:08.145Z,14.00
2022-11-26T11:24:53.416Z,13.90
2022-11-26T11:25:53.411Z,14.70
2022-11-26T11:26:53.414Z,14.20
2022-11-26T11:27:53.362Z,14.30
2022-11-26T11:28:53.369Z,14.10
2022-11-26T11:29:53.364Z,13.50
2022-11-26T11:30:53.368Z,14.30
2022-11-26T11:32:00.887Z,13.80
2022-11-26T11:32:53.325Z,14.50
2022-11-26T11:33:53.303Z,12.30
2022-11-26T11:34:53.311Z,14.30
2022-11-26T11:35:53.270Z,13.90
2022-11-26T11:36:53.274Z,13.90
2022-11-26T11:37:53.261Z,14.50
2022-11-26T11:38:53.240Z,13.30
2022-11-26T11:39:53.246Z,12.10
2022-11-26T11:40:53.223Z,14.60
2022-11-26T11:41:53.225Z,13.20
2022-11-26T11:42:53.198Z,14.70
2022-11-26T11:43:53.216Z,14.20
2022-11-26T11:44:53.207Z,13.30
2022-11-26T11:45:53.625Z,14.50
2022-11-26T11:46:53.164Z,13.50
2022-11-26T11:47:53.152Z,12.50
2022-11-26T11:48:53.149Z,13.30
2022-11-26T11:49:53.136Z,13.20
2022-11-26T11:50:53.109Z,14.40
2022-11-26T11:51:53.108Z,13.20
2022-11-26T11:52:53.097Z,14.30
2022-11-26T11:53:53.085Z,13.10
2022-11-26T11:54:53.067Z,14.80
2022-11-26T11:55:55.858Z,14.30
2022-11-26T11:56:53.060Z,13.70
2022-11-26T11:57:53.050Z,13.40
2022-11-26T11:58:53.021Z,12.80
2022-11-26T11:59:53.102Z,14.20
2022-11-26T12:00:53.039Z,13.70
2022-11-26T12:01:53.179Z,12.90
2022-11-26T12:02:52.989Z,13.40
2022-11-26T12:03:53.048Z,12.20
2022-11-26T12:04:53.036Z,13.00
2022-11-26T12:05:52.947Z,13.20
2022-11-26T12:06:52.951Z,12.80
2022-11-26T12:07:52.992Z,12.90
2022-11-26T12:08:52.916Z,13.20
2022-11-26T12:09:52.934Z,12.00
2022-11-26T12:10:52.883Z,12.70
2022-11-26T12:11:52.910Z,12.40
2022-11-26T12:14:18.971Z,12.20
2022-11-26T12:14:23.872Z,13.80
2022-11-26T12:15:23.874Z,12.40
2022-11-26T12:16:23.882Z,12.40
2022-11-26T12:17:26.738Z,12.40
2022-11-26T12:18:23.805Z,12.80
2022-11-26T12:19:23.782Z,12.80
2022-11-26T12:20:23.766Z,13.20
2022-11-26T12:21:23.762Z,13.20
2022-11-26T12:22:23.765Z,12.60
2022-11-26T12:23:24.825Z,13.70
2022-11-26T12:24:24.469Z,13.40
2022-11-26T12:25:23.707Z,12.30
2022-11-26T12:26:23.712Z,12.00
2022-11-26T12:27:23.728Z,12.30
2022-11-26T12:28:23.700Z,12.40
2022-11-26T12:29:23.703Z,12.40
2022-11-26T12:30:23.704Z,13.50
2022-11-26T12:31:23.769Z,13.20
2022-11-26T12:32:31.135Z,12.60
2022-11-26T12:33:23.618Z,12.30
2022-11-26T12:34:23.617Z,13.20
2022-11-26T12:35:23.613Z,12.50
2022-11-26T12:36:23.573Z,13.90
2022-11-26T12:37:23.645Z,12.30
2022-11-26T12:38:23.568Z,12.50
2022-11-26T12:39:23.537Z,12.40
2022-11-26T12:40:23.553Z,12.00
2022-11-26T12:41:23.528Z,13.30
2022-11-26T12:42:23.505Z,11.90
2022-11-26T12:43:23.513Z,12.10
2022-11-26T12:44:23.486Z,12.20
2022-11-26T12:45:23.489Z,12.20
2022-11-26T12:46:23.577Z,11.70
2022-11-26T12:47:23.461Z,11.60
2022-11-26T12:48:23.467Z,11.80
2022-11-26T12:49:23.434Z,11.90
2022-11-26T12:50:23.443Z,12.40
2022-11-26T12:51:23.409Z,11.90
2022-11-26T12:52:23.414Z,11.90
2022-11-26T12:53:23.395Z,11.50
2022-11-26T12:54:23.393Z,11.70
2022-11-26T12:55:23.376Z,11.80